Terminal Aerodrome Forecast
Issued by NWS Des Moines, IA

Home | Current Version | Previous Version | Text Only | Print | Product List | Glossary On
Versions: 1 2 3 4 5 6 7 8 9 10 11 12 13 14 15 16 17 18 19 20 21 22
000
FTUS43 KDMX 290520
TAFALO
TAF
KALO 290520Z 2906/3006 15007KT 5SM BR SCT007 BKN250
      TEMPO 2910/2912 1/2SM FG BKN005
     FM291300 16007KT 2SM BR SCT005 BKN170
     FM291500 17007KT P6SM VCSH SCT017 BKN150
     FM291700 17006KT P6SM VCTS SCT030CB BKN130
     FM300100 VRB03KT P6SM SCT025 BKN150=

USA.gov is the U.S. government's official web portal to all federal, state and local government web resources and services.